Time;durP1;ratioP1;P1;durP2;ratioP2;P2;SDS_P1;SDS_P2;PMS_P1;PMS_P2;Temp;Humidity;BMP_temperature;BMP_pressure;BME280_temperature;BME280_humidity;BME280_pressure;Samples;Min_cycle;Max_cycle;Signal;HPM_P1;HPM_P2
2022/10/26 00:01:13;;;;;;;;;;;15.40;99.90;;;;;;7333565;19;109162;-78
2022/10/26 00:03:41;;;;;;;;;;;15.40;99.90;;;;;;7333916;19;109803;-79
2022/10/26 00:06:18;;;;;;;;;;;15.40;99.90;;;;;;7334222;19;109361;-78
2022/10/26 00:08:45;;;;;;;;;;;15.40;99.90;;;;;;7335050;19;109013;-78
2022/10/26 00:11:12;;;;;;;;;;;15.40;99.90;;;;;;7340295;19;108516;-78
2022/10/26 00:13:40;;;;;;;;;;;15.40;99.90;;;;;;7341503;19;109136;-78
2022/10/26 00:16:11;;;;;;;;;;;15.40;99.90;;;;;;7340321;19;110632;-78
2022/10/26 00:18:38;;;;;;;;;;;15.40;99.90;;;;;;7344780;19;108522;-79
2022/10/26 00:21:06;;;;;;;;;;;15.40;99.90;;;;;;7341150;19;110579;-78
2022/10/26 00:23:33;;;;;;;;;;;15.40;99.90;;;;;;7339535;19;108804;-78
2022/10/26 00:26:00;;;;;;;;;;;15.40;99.90;;;;;;7340633;19;109896;-78
2022/10/26 00:28:26;;;;;;;;;;;15.40;99.90;;;;;;7338660;19;110768;-78
2022/10/26 00:30:53;;;;;;;;;;;15.40;99.90;;;;;;7340488;19;108280;-79
2022/10/26 00:33:20;;;;;;;;;;;15.40;99.90;;;;;;7338385;19;109514;-78
2022/10/26 00:35:51;;;;;;;;;;;15.40;99.90;;;;;;7340544;19;109302;-78
2022/10/26 00:38:18;;;;;;;;;;;15.40;99.90;;;;;;7339871;19;110397;-80
2022/10/26 00:40:46;;;;;;;;;;;15.40;99.90;;;;;;7345830;19;109084;-79
2022/10/26 00:43:19;;;;;;;;;;;15.40;99.90;;;;;;7339968;19;109049;-79
2022/10/26 00:45:48;;;;;;;;;;;15.40;99.90;;;;;;7341310;19;109103;-79
2022/10/26 00:48:20;;;;;;;;;;;15.30;99.90;;;;;;7338585;19;112298;-79
2022/10/26 00:50:47;;;;;;;;;;;15.30;99.90;;;;;;7340423;19;109648;-79
2022/10/26 00:53:14;;;;;;;;;;;15.30;99.90;;;;;;7339210;19;111981;-79
2022/10/26 00:55:44;;;;;;;;;;;15.30;99.90;;;;;;7337039;19;110118;-79
2022/10/26 00:58:12;;;;;;;;;;;15.30;99.90;;;;;;7338736;19;108612;-79
2022/10/26 01:00:40;;;;;;;;;;;15.30;99.90;;;;;;7339051;19;109152;-79
2022/10/26 01:03:08;;;;;;;;;;;15.30;99.90;;;;;;7343378;19;110377;-78
2022/10/26 01:05:38;;;;;;;;;;;15.30;99.90;;;;;;7338224;19;110129;-79
2022/10/26 01:08:06;;;;;;;;;;;15.30;99.90;;;;;;7338757;19;114365;-78
2022/10/26 01:10:33;;;;;;;;;;;15.30;99.90;;;;;;7339090;19;108831;-78
2022/10/26 01:13:01;;;;;;;;;;;15.30;99.90;;;;;;7338973;19;109920;-79
2022/10/26 01:15:45;;;;;;;;;;;15.30;99.90;;;;;;7337377;19;109235;-78
2022/10/26 01:18:16;;;;;;;;;;;15.30;99.90;;;;;;7338079;19;109564;-78
2022/10/26 01:20:46;;;;;;;;;;;15.30;99.90;;;;;;7336462;19;109599;-78
2022/10/26 01:23:16;;;;;;;;;;;15.30;99.90;;;;;;7339439;19;113561;-79
2022/10/26 01:25:49;;;;;;;;;;;15.30;99.90;;;;;;7337897;19;110133;-78
2022/10/26 01:28:29;;;;;;;;;;;15.30;99.90;;;;;;7336455;19;111009;-78
2022/10/26 01:30:58;;;;;;;;;;;15.30;99.90;;;;;;7339550;19;109528;-78
2022/10/26 01:33:33;;;;;;;;;;;15.30;99.90;;;;;;7337458;19;109266;-78
2022/10/26 01:36:18;;;;;;;;;;;15.30;99.90;;;;;;7337778;19;111092;-78
2022/10/26 01:39:00;;;;;;;;;;;15.30;99.90;;;;;;7335693;19;109082;-79
2022/10/26 01:41:27;;;;;;;;;;;15.30;99.90;;;;;;7337410;19;108720;-79
2022/10/26 01:44:00;;;;;;;;;;;15.30;99.90;;;;;;7337369;19;113474;-79
2022/10/26 01:46:29;;;;;;;;;;;15.30;99.90;;;;;;7342917;19;108126;-79
2022/10/26 01:48:58;;;;;;;;;;;15.20;99.90;;;;;;7338288;19;110765;-78
2022/10/26 01:51:25;;;;;;;;;;;15.30;99.90;;;;;;7336636;19;109277;-78
2022/10/26 01:53:52;;;;;;;;;;;15.30;99.90;;;;;;7339115;19;115303;-78
2022/10/26 01:56:23;;;;;;;;;;;15.30;99.90;;;;;;7335275;19;110409;-78
2022/10/26 01:59:06;;;;;;;;;;;15.20;99.90;;;;;;7338752;19;109579;-79
2022/10/26 02:01:33;;;;;;;;;;;15.20;99.90;;;;;;7336415;19;109810;-78
2022/10/26 02:04:06;;;;;;;;;;;15.20;99.90;;;;;;7336964;19;109566;-79
2022/10/26 02:06:36;;;;;;;;;;;15.20;99.90;;;;;;7334989;19;109265;-78
2022/10/26 02:09:10;;;;;;;;;;;15.20;99.90;;;;;;7343004;19;110047;-79
2022/10/26 02:11:41;;;;;;;;;;;15.20;99.90;;;;;;7340164;19;108584;-78
2022/10/26 02:14:14;;;;;;;;;;;15.30;99.90;;;;;;7337527;19;111482;-79
2022/10/26 02:17:02;;;;;;;;;;;15.30;99.90;;;;;;7336849;19;109648;-79
2022/10/26 02:19:37;;;;;;;;;;;15.30;99.90;;;;;;7335448;19;109135;-78
2022/10/26 02:22:11;;;;;;;;;;;15.30;99.90;;;;;;7336583;19;108938;-79
2022/10/26 02:24:38;;;;;;;;;;;15.30;99.90;;;;;;7335254;19;109677;-78
2022/10/26 02:27:11;;;;;;;;;;;15.30;99.90;;;;;;7335004;19;109129;-79
2022/10/26 02:29:38;;;;;;;;;;;15.30;99.90;;;;;;7337868;19;109383;-78
2022/10/26 02:32:07;;;;;;;;;;;15.30;99.90;;;;;;7339918;19;110327;-78
2022/10/26 02:34:36;;;;;;;;;;;15.30;99.90;;;;;;7334849;19;111383;-78
2022/10/26 02:37:03;;;;;;;;;;;15.30;99.90;;;;;;7336001;19;110270;-78
2022/10/26 02:39:32;;;;;;;;;;;15.30;99.90;;;;;;7335230;19;108975;-78
2022/10/26 02:42:02;;;;;;;;;;;15.30;99.90;;;;;;7336307;19;109429;-78
2022/10/26 02:44:35;;;;;;;;;;;15.30;99.90;;;;;;7333283;19;110277;-79
2022/10/26 02:47:02;;;;;;;;;;;15.30;99.90;;;;;;7337274;19;108621;-78
2022/10/26 02:49:29;;;;;;;;;;;15.30;99.90;;;;;;7335235;19;108368;-78
2022/10/26 02:52:22;;;;;;;;;;;15.30;99.90;;;;;;7336525;19;109791;-79
2022/10/26 02:54:52;;;;;;;;;;;15.30;99.90;;;;;;7339701;19;108488;-78
2022/10/26 02:57:19;;;;;;;;;;;15.30;99.90;;;;;;7336706;19;110330;-79
2022/10/26 02:59:46;;;;;;;;;;;15.30;99.90;;;;;;7336740;19;108800;-79
2022/10/26 03:02:15;;;;;;;;;;;15.30;99.90;;;;;;7334673;19;109357;-78
2022/10/26 03:04:42;;;;;;;;;;;15.30;99.90;;;;;;7338302;19;110560;-79
2022/10/26 03:07:09;;;;;;;;;;;15.30;99.90;;;;;;7336141;19;110243;-78
2022/10/26 03:09:36;;;;;;;;;;;15.30;99.90;;;;;;7335772;19;109051;-78
2022/10/26 03:12:03;;;;;;;;;;;15.30;99.90;;;;;;7334856;19;110568;-79
2022/10/26 03:14:29;;;;;;;;;;;15.30;99.90;;;;;;7331481;19;109223;-78
2022/10/26 03:16:56;;;;;;;;;;;15.30;99.90;;;;;;7341995;19;109102;-78
2022/10/26 03:19:23;;;;;;;;;;;15.30;99.90;;;;;;7335025;19;109375;-78
2022/10/26 03:21:50;;;;;;;;;;;15.30;99.90;;;;;;7335783;19;109347;-78
2022/10/26 03:24:17;;;;;;;;;;;15.30;99.90;;;;;;7336709;19;113623;-79
2022/10/26 03:26:44;;;;;;;;;;;15.30;99.90;;;;;;7336951;19;109033;-79
2022/10/26 03:29:11;;;;;;;;;;;15.30;99.90;;;;;;7336082;19;110251;-79
2022/10/26 03:31:37;;;;;;;;;;;15.30;99.90;;;;;;7334628;19;110676;-78
2022/10/26 03:34:04;;;;;;;;;;;15.40;99.90;;;;;;7333261;19;109220;-79
2022/10/26 03:36:32;;;;;;;;;;;15.30;99.90;;;;;;7338356;19;109375;-78
2022/10/26 03:38:59;;;;;;;;;;;15.30;99.90;;;;;;7335070;19;109009;-78
2022/10/26 03:41:26;;;;;;;;;;;15.40;99.90;;;;;;7334621;19;109084;-79
2022/10/26 03:43:53;;;;;;;;;;;15.40;99.90;;;;;;7333144;19;110448;-78
2022/10/26 03:46:20;;;;;;;;;;;15.40;99.90;;;;;;7335517;19;108855;-78
2022/10/26 03:48:47;;;;;;;;;;;15.40;99.90;;;;;;7333893;19;110490;-78
2022/10/26 03:51:14;;;;;;;;;;;15.40;99.90;;;;;;7334563;19;110089;-79
2022/10/26 03:53:41;;;;;;;;;;;15.40;99.90;;;;;;7334730;19;109397;-78
2022/10/26 03:56:08;;;;;;;;;;;15.40;99.90;;;;;;7336100;19;108802;-78
2022/10/26 03:58:35;;;;;;;;;;;15.40;99.90;;;;;;7336425;19;110024;-78
2022/10/26 04:01:02;;;;;;;;;;;15.40;99.90;;;;;;7333593;19;109846;-78
2022/10/26 04:03:29;;;;;;;;;;;15.40;99.90;;;;;;7332094;19;110303;-79
2022/10/26 04:05:59;;;;;;;;;;;15.40;99.90;;;;;;7336525;19;108643;-78
2022/10/26 04:08:26;;;;;;;;;;;15.40;99.90;;;;;;7333943;19;110099;-79
2022/10/26 04:10:52;;;;;;;;;;;15.50;99.90;;;;;;7335374;19;110197;-79
2022/10/26 04:13:19;;;;;;;;;;;15.40;99.90;;;;;;7334013;19;108592;-79
2022/10/26 04:15:46;;;;;;;;;;;15.40;99.90;;;;;;7336105;19;108788;-79
2022/10/26 04:18:13;;;;;;;;;;;15.50;99.90;;;;;;7332331;19;109427;-79
2022/10/26 04:20:41;;;;;;;;;;;15.50;99.90;;;;;;7339830;19;109133;-78
2022/10/26 04:23:11;;;;;;;;;;;15.40;99.90;;;;;;7334242;19;110624;-78
2022/10/26 04:25:39;;;;;;;;;;;15.40;99.90;;;;;;7334453;19;108730;-78
2022/10/26 04:28:06;;;;;;;;;;;15.40;99.90;;;;;;7333855;19;109171;-78
2022/10/26 04:30:33;;;;;;;;;;;15.40;99.90;;;;;;7332424;19;110166;-78
2022/10/26 04:33:00;;;;;;;;;;;15.40;99.90;;;;;;7335844;19;108809;-79
2022/10/26 04:35:28;;;;;;;;;;;15.30;99.90;;;;;;7333026;19;109213;-78
2022/10/26 04:38:02;;;;;;;;;;;15.40;99.90;;;;;;7332879;19;113701;-78
2022/10/26 04:40:29;;;;;;;;;;;15.40;99.90;;;;;;7329168;19;108813;-79
2022/10/26 04:42:56;;;;;;;;;;;15.50;99.90;;;;;;7339528;19;108273;-81
2022/10/26 04:45:24;;;;;;;;;;;15.40;99.90;;;;;;7331740;19;109027;-81
2022/10/26 04:48:03;;;;;;;;;;;15.40;99.90;;;;;;7332851;19;108718;-80
2022/10/26 04:50:30;;;;;;;;;;;15.50;99.90;;;;;;7330144;19;110527;-79
2022/10/26 04:52:57;;;;;;;;;;;15.40;99.90;;;;;;7332310;19;108368;-79
2022/10/26 04:55:24;;;;;;;;;;;15.40;99.90;;;;;;7333200;19;109735;-79
2022/10/26 04:57:51;;;;;;;;;;;15.40;99.90;;;;;;7340406;19;110193;-79
2022/10/26 05:00:24;;;;;;;;;;;15.40;99.90;;;;;;7338456;19;108309;-80
2022/10/26 05:02:50;;;;;;;;;;;15.40;99.90;;;;;;7341920;19;108995;-79
2022/10/26 05:05:17;;;;;;;;;;;15.40;99.90;;;;;;7341111;19;111180;-79
2022/10/26 05:07:52;;;;;;;;;;;15.40;99.90;;;;;;7341243;19;108789;-79
2022/10/26 05:10:18;;;;;;;;;;;15.30;99.90;;;;;;7338402;19;109457;-79
2022/10/26 05:12:52;;;;;;;;;;;15.40;99.90;;;;;;7339088;19;109184;-78
2022/10/26 05:15:20;;;;;;;;;;;15.30;99.90;;;;;;7339209;19;109333;-78
2022/10/26 05:17:46;;;;;;;;;;;15.30;99.90;;;;;;7338757;19;108825;-79
2022/10/26 05:20:14;;;;;;;;;;;15.30;99.90;;;;;;7337495;19;109678;-79
2022/10/26 05:22:41;;;;;;;;;;;15.30;99.90;;;;;;7340376;19;109136;-78
2022/10/26 05:25:08;;;;;;;;;;;15.20;99.90;;;;;;7340424;19;111496;-78
2022/10/26 05:27:35;;;;;;;;;;;15.30;99.90;;;;;;7344555;19;108856;-79
2022/10/26 05:30:02;;;;;;;;;;;15.30;99.90;;;;;;7341024;19;109784;-79
2022/10/26 05:32:29;;;;;;;;;;;15.30;99.90;;;;;;7336581;19;108533;-79
2022/10/26 05:34:56;;;;;;;;;;;15.40;99.90;;;;;;7340255;19;109090;-79
2022/10/26 05:37:23;;;;;;;;;;;15.40;99.90;;;;;;7337383;19;111595;-79
2022/10/26 05:39:50;;;;;;;;;;;15.50;99.90;;;;;;7339072;19;108401;-79
2022/10/26 05:42:17;;;;;;;;;;;15.50;99.90;;;;;;7336958;19;109389;-79
2022/10/26 05:44:43;;;;;;;;;;;15.50;99.90;;;;;;7336736;19;110257;-78
2022/10/26 05:47:11;;;;;;;;;;;15.50;99.90;;;;;;7344241;19;108685;-78
2022/10/26 05:49:38;;;;;;;;;;;15.50;99.90;;;;;;7339737;19;110474;-78
2022/10/26 05:52:04;;;;;;;;;;;15.40;99.90;;;;;;7337120;19;108664;-79
2022/10/26 05:54:31;;;;;;;;;;;15.40;99.90;;;;;;7340050;19;109523;-78
2022/10/26 05:56:58;;;;;;;;;;;15.40;99.90;;;;;;7339948;19;110898;-83
2022/10/26 05:59:25;;;;;;;;;;;15.40;99.90;;;;;;7339217;19;108853;-79
2022/10/26 06:01:56;;;;;;;;;;;15.50;99.90;;;;;;7336005;19;109215;-78
2022/10/26 06:04:37;;;;;;;;;;;15.50;99.90;;;;;;7334369;19;109935;-79
2022/10/26 06:07:10;;;;;;;;;;;15.50;99.90;;;;;;7338161;19;108880;-79
2022/10/26 06:09:37;;;;;;;;;;;15.40;99.90;;;;;;7342428;19;109581;-80
2022/10/26 06:12:04;;;;;;;;;;;15.40;99.90;;;;;;7337351;19;109136;-79
2022/10/26 06:14:32;;;;;;;;;;;15.40;99.90;;;;;;7337269;19;111102;-79
2022/10/26 06:17:14;;;;;;;;;;;15.30;99.90;;;;;;7336396;19;110185;-80
2022/10/26 06:20:02;;;;;;;;;;;15.30;99.90;;;;;;7338807;19;108930;-79
2022/10/26 06:22:37;;;;;;;;;;;15.30;99.90;;;;;;7336671;19;109353;-79
2022/10/26 06:25:23;;;;;;;;;;;15.30;99.90;;;;;;7334947;19;113296;-80
2022/10/26 06:27:50;;;;;;;;;;;15.30;99.90;;;;;;7339671;19;110047;-78
2022/10/26 06:30:19;;;;;;;;;;;15.30;99.90;;;;;;7338150;19;109053;-78
2022/10/26 06:32:46;;;;;;;;;;;15.30;99.90;;;;;;7343246;19;110426;-78
2022/10/26 06:35:48;;;;;;;;;;;15.30;99.90;;;;;;7336993;19;110058;-78
2022/10/26 06:38:17;;;;;;;;;;;15.30;99.90;;;;;;7333058;19;109740;-78
2022/10/26 06:40:45;;;;;;;;;;;15.30;99.90;;;;;;7334677;19;108927;-79
2022/10/26 06:43:15;;;;;;;;;;;15.30;99.90;;;;;;7333630;19;108765;-78
2022/10/26 06:45:44;;;;;;;;;;;15.30;99.90;;;;;;7333994;19;109394;-78
2022/10/26 06:48:15;;;;;;;;;;;15.30;99.90;;;;;;7334220;19;108298;-78
2022/10/26 06:50:47;;;;;;;;;;;15.30;99.90;;;;;;7330619;19;115449;-78
2022/10/26 06:53:24;;;;;;;;;;;15.30;99.90;;;;;;7329582;19;109986;-78
2022/10/26 06:55:52;;;;;;;;;;;15.30;99.90;;;;;;7341881;19;109436;-78
2022/10/26 06:58:22;;;;;;;;;;;15.30;99.90;;;;;;7332953;19;110533;-78
2022/10/26 07:00:50;;;;;;;;;;;15.30;99.90;;;;;;7332108;19;109440;-78
2022/10/26 07:03:17;;;;;;;;;;;15.30;99.90;;;;;;7331657;19;109597;-78
2022/10/26 07:05:44;;;;;;;;;;;15.40;99.90;;;;;;7330969;19;110654;-78
2022/10/26 07:08:11;;;;;;;;;;;15.40;99.90;;;;;;7331447;19;108960;-78
2022/10/26 07:10:38;;;;;;;;;;;15.50;99.90;;;;;;7331027;19;108977;-78
2022/10/26 07:13:05;;;;;;;;;;;15.50;99.90;;;;;;7333898;19;111214;-77
2022/10/26 07:15:33;;;;;;;;;;;15.50;99.90;;;;;;7332451;19;111473;-78
2022/10/26 07:18:00;;;;;;;;;;;15.50;99.90;;;;;;7339262;19;109288;-78
2022/10/26 07:20:27;;;;;;;;;;;15.50;99.90;;;;;;7334060;19;112102;-78
2022/10/26 07:22:55;;;;;;;;;;;15.50;99.90;;;;;;7337319;19;109059;-78
2022/10/26 07:25:22;;;;;;;;;;;15.60;99.90;;;;;;7331274;19;110300;-77
2022/10/26 07:27:49;;;;;;;;;;;15.60;99.90;;;;;;7336160;19;108402;-78
2022/10/26 07:30:17;;;;;;;;;;;15.60;99.90;;;;;;7333300;19;108686;-78
2022/10/26 07:32:44;;;;;;;;;;;15.60;99.90;;;;;;7335121;19;109686;-78
2022/10/26 07:35:10;;;;;;;;;;;15.60;99.90;;;;;;7333100;19;108773;-78
2022/10/26 07:37:37;;;;;;;;;;;15.70;99.90;;;;;;7339587;19;111183;-78
2022/10/26 07:40:05;;;;;;;;;;;15.70;99.90;;;;;;7335648;19;108658;-78
2022/10/26 07:42:33;;;;;;;;;;;15.80;99.90;;;;;;7333868;19;109286;-78
2022/10/26 07:45:00;;;;;;;;;;;15.80;99.90;;;;;;7335783;19;109200;-78
2022/10/26 07:47:27;;;;;;;;;;;15.90;99.90;;;;;;7334136;19;108758;-78
2022/10/26 07:49:53;;;;;;;;;;;16.00;99.90;;;;;;7334954;19;112087;-78
2022/10/26 07:52:20;;;;;;;;;;;16.10;99.90;;;;;;7334470;19;110332;-78
2022/10/26 07:54:47;;;;;;;;;;;16.10;99.90;;;;;;7335520;19;110218;-78
2022/10/26 07:57:17;;;;;;;;;;;16.20;99.90;;;;;;7335584;19;109129;-78
2022/10/26 07:59:44;;;;;;;;;;;16.30;99.90;;;;;;7328153;19;113565;-77
2022/10/26 08:02:11;;;;;;;;;;;16.40;99.90;;;;;;7325103;19;109506;-72
2022/10/26 08:04:38;;;;;;;;;;;16.40;99.90;;;;;;7323017;19;110364;-72
2022/10/26 08:07:04;;;;;;;;;;;16.50;99.90;;;;;;7327816;19;109204;-72
2022/10/26 08:09:31;;;;;;;;;;;16.60;99.90;;;;;;7323295;19;111308;-72
2022/10/26 08:11:58;;;;;;;;;;;16.60;99.90;;;;;;7323508;19;110297;-72
2022/10/26 08:14:25;;;;;;;;;;;16.70;99.90;;;;;;7330724;19;108703;-72
2022/10/26 08:16:52;;;;;;;;;;;16.80;99.90;;;;;;7337506;19;115220;-72
2022/10/26 08:19:19;;;;;;;;;;;16.90;99.90;;;;;;7333813;19;109700;-72
2022/10/26 08:21:46;;;;;;;;;;;16.90;99.90;;;;;;7339222;19;108553;-72
2022/10/26 08:24:13;;;;;;;;;;;17.10;99.90;;;;;;7333480;19;110403;-71
2022/10/26 08:26:40;;;;;;;;;;;17.10;99.90;;;;;;7332637;19;108334;-72
2022/10/26 08:29:07;;;;;;;;;;;17.20;99.90;;;;;;7335719;19;109190;-72
2022/10/26 08:31:33;;;;;;;;;;;17.30;99.90;;;;;;7339356;19;109140;-71
2022/10/26 08:34:00;;;;;;;;;;;17.30;99.90;;;;;;7341180;19;109869;-72
2022/10/26 08:36:27;;;;;;;;;;;17.40;99.90;;;;;;7340422;19;111413;-72
2022/10/26 08:38:54;;;;;;;;;;;17.50;99.90;;;;;;7340483;19;109175;-72
2022/10/26 08:41:36;;;;;;;;;;;17.60;99.90;;;;;;7338232;19;109564;-72
2022/10/26 08:44:26;;;;;;;;;;;17.60;99.90;;;;;;7344774;19;108795;-71
2022/10/26 08:47:05;;;;;;;;;;;17.70;99.90;;;;;;7339384;19;109293;-72
2022/10/26 08:49:38;;;;;;;;;;;17.80;99.90;;;;;;7337695;19;108624;-71
2022/10/26 08:52:10;;;;;;;;;;;17.90;99.90;;;;;;7339874;19;109346;-72
2022/10/26 08:54:38;;;;;;;;;;;18.00;99.90;;;;;;7340233;19;108987;-72
2022/10/26 08:57:26;;;;;;;;;;;18.00;99.90;;;;;;7341308;19;108701;-72
2022/10/26 08:59:56;;;;;;;;;;;18.10;99.90;;;;;;7340957;19;112442;-72
2022/10/26 09:02:23;;;;;;;;;;;18.20;99.90;;;;;;7338876;19;108910;-72
2022/10/26 09:04:51;;;;;;;;;;;18.30;99.90;;;;;;7338413;19;110172;-72
2022/10/26 09:07:18;;;;;;;;;;;18.30;99.90;;;;;;7344157;19;110111;-72
2022/10/26 09:10:03;;;;;;;;;;;18.40;99.90;;;;;;7339787;19;109429;-72
2022/10/26 09:12:30;;;;;;;;;;;18.50;99.90;;;;;;7337166;19;110281;-72
2022/10/26 09:15:09;;;;;;;;;;;18.60;99.90;;;;;;7340381;19;112377;-72
2022/10/26 09:17:50;;;;;;;;;;;18.60;99.90;;;;;;7339970;19;110743;-72
2022/10/26 09:20:25;;;;;;;;;;;18.70;99.90;;;;;;7339389;19;110086;-72
2022/10/26 09:22:52;;;;;;;;;;;18.80;99.90;;;;;;7340751;19;108834;-71
2022/10/26 09:25:21;;;;;;;;;;;18.90;99.90;;;;;;7336965;19;108229;-72
2022/10/26 09:27:50;;;;;;;;;;;19.00;99.90;;;;;;7339281;19;111633;-72
2022/10/26 09:30:19;;;;;;;;;;;19.00;99.90;;;;;;7344392;19;108264;-72
2022/10/26 09:32:47;;;;;;;;;;;19.10;99.90;;;;;;7338461;19;110393;-72
2022/10/26 09:35:17;;;;;;;;;;;19.10;99.90;;;;;;7337559;19;109176;-71
2022/10/26 09:37:54;;;;;;;;;;;19.10;99.90;;;;;;7339616;19;110143;-71
2022/10/26 09:40:23;;;;;;;;;;;19.10;99.90;;;;;;7337423;19;110363;-71
2022/10/26 09:42:58;;;;;;;;;;;19.20;99.90;;;;;;7337853;19;108485;-71
2022/10/26 09:45:28;;;;;;;;;;;19.20;99.90;;;;;;7336075;19;110418;-72
2022/10/26 09:47:57;;;;;;;;;;;19.20;99.90;;;;;;7339582;19;110603;-72
2022/10/26 09:50:30;;;;;;;;;;;19.20;99.90;;;;;;7342214;19;108260;-71
2022/10/26 09:52:56;;;;;;;;;;;19.30;99.90;;;;;;7336499;19;109900;-72
2022/10/26 09:55:23;;;;;;;;;;;19.40;99.90;;;;;;7336601;19;109193;-72
2022/10/26 09:57:52;;;;;;;;;;;19.40;99.90;;;;;;7338229;19;110005;-72
2022/10/26 10:00:20;;;;;;;;;;;19.50;99.90;;;;;;7338143;19;110670;-72
2022/10/26 10:02:51;;;;;;;;;;;19.50;99.90;;;;;;7337725;19;109631;-72
2022/10/26 10:05:29;;;;;;;;;;;19.70;99.90;;;;;;7335855;19;108973;-72
2022/10/26 10:08:19;;;;;;;;;;;19.70;99.90;;;;;;7336069;19;110599;-72
2022/10/26 10:10:52;;;;;;;;;;;19.80;99.90;;;;;;7337988;19;109291;-72
2022/10/26 10:13:20;;;;;;;;;;;19.80;99.90;;;;;;7341549;19;111024;-72
2022/10/26 10:15:54;;;;;;;;;;;19.90;99.90;;;;;;7337142;19;109388;-72
2022/10/26 10:18:22;;;;;;;;;;;19.90;99.90;;;;;;7336682;19;108817;-72
2022/10/26 10:20:50;;;;;;;;;;;20.00;99.90;;;;;;7340320;19;110014;-72
2022/10/26 10:23:27;;;;;;;;;;;20.10;99.90;;;;;;7337563;19;108836;-72
2022/10/26 10:26:02;;;;;;;;;;;20.10;99.90;;;;;;7338415;19;109352;-72
2022/10/26 10:28:29;;;;;;;;;;;20.20;99.90;;;;;;7335870;19;110253;-72
2022/10/26 10:30:58;;;;;;;;;;;20.20;99.90;;;;;;7337330;19;109792;-72
2022/10/26 10:33:36;;;;;;;;;;;20.30;99.90;;;;;;7336414;19;109654;-72
2022/10/26 10:36:04;;;;;;;;;;;20.30;99.90;;;;;;7339732;19;109122;-72
2022/10/26 10:38:36;;;;;;;;;;;20.40;99.90;;;;;;7335430;19;109162;-72
2022/10/26 10:41:03;;;;;;;;;;;20.50;99.90;;;;;;7335312;19;110526;-72
2022/10/26 10:43:31;;;;;;;;;;;20.50;99.90;;;;;;7335586;19;108797;-73
2022/10/26 10:45:59;;;;;;;;;;;20.60;99.90;;;;;;7336967;19;109101;-72
2022/10/26 10:48:28;;;;;;;;;;;20.60;99.90;;;;;;7333191;19;109173;-73
2022/10/26 10:51:00;;;;;;;;;;;20.70;99.90;;;;;;7336486;19;108530;-72
2022/10/26 10:53:33;;;;;;;;;;;20.70;99.90;;;;;;7335476;19;116210;-67
2022/10/26 10:56:05;;;;;;;;;;;20.80;99.90;;;;;;7330893;19;111179;-67
2022/10/26 10:58:56;;;;;;;;;;;20.70;99.90;;;;;;7338083;19;108728;-67
2022/10/26 11:01:25;;;;;;;;;;;20.80;99.90;;;;;;7335538;19;110317;-67
2022/10/26 11:04:07;;;;;;;;;;;20.90;99.90;;;;;;7332953;19;108714;-67
2022/10/26 11:06:36;;;;;;;;;;;20.90;99.90;;;;;;7334593;19;109252;-68
2022/10/26 11:09:06;;;;;;;;;;;21.00;99.90;;;;;;7336138;19;110610;-68
2022/10/26 11:11:39;;;;;;;;;;;21.00;99.90;;;;;;7335989;19;109197;-68
2022/10/26 11:14:15;;;;;;;;;;;21.00;99.90;;;;;;7337199;19;109340;-67
2022/10/26 11:16:45;;;;;;;;;;;21.00;99.90;;;;;;7334545;19;110470;-68
2022/10/26 11:19:12;;;;;;;;;;;21.10;99.90;;;;;;7334425;19;109222;-67
2022/10/26 11:21:39;;;;;;;;;;;21.20;99.90;;;;;;7343475;19;109310;-68
2022/10/26 11:24:11;;;;;;;;;;;21.30;99.90;;;;;;7334099;19;118605;-67
2022/10/26 11:26:44;;;;;;;;;;;21.40;99.90;;;;;;7336721;19;108322;-68
2022/10/26 11:29:35;;;;;;;;;;;21.50;99.90;;;;;;7334106;19;109884;-67
2022/10/26 11:32:10;;;;;;;;;;;21.50;99.90;;;;;;7335478;19;109113;-67
2022/10/26 11:34:50;;;;;;;;;;;21.40;99.90;;;;;;7336728;19;109894;-68
2022/10/26 11:37:19;;;;;;;;;;;21.50;99.90;;;;;;7333770;19;108952;-69
2022/10/26 11:40:00;;;;;;;;;;;21.60;99.90;;;;;;7337016;19;109425;-68
2022/10/26 11:42:35;;;;;;;;;;;21.60;99.90;;;;;;7333085;19;111304;-68
2022/10/26 11:45:18;;;;;;;;;;;21.60;99.90;;;;;;7340288;19;115104;-67
2022/10/26 11:47:50;;;;;;;;;;;21.60;99.90;;;;;;7333649;19;108381;-68
2022/10/26 11:50:21;;;;;;;;;;;21.60;99.90;;;;;;7333673;19;110563;-68
2022/10/26 11:52:51;;;;;;;;;;;21.70;99.90;;;;;;7335506;19;108954;-67
2022/10/26 11:55:19;;;;;;;;;;;21.70;99.90;;;;;;7333662;19;108789;-67
2022/10/26 11:57:46;;;;;;;;;;;21.70;99.90;;;;;;7335605;19;110105;-67
2022/10/26 12:00:16;;;;;;;;;;;21.60;99.90;;;;;;7334060;19;109160;-67
2022/10/26 12:02:46;;;;;;;;;;;21.70;99.90;;;;;;7332574;19;109236;-68
2022/10/26 12:05:19;;;;;;;;;;;21.80;99.90;;;;;;7342803;19;109213;-68
2022/10/26 12:07:48;;;;;;;;;;;21.80;99.90;;;;;;7340619;19;109115;-67
2022/10/26 12:10:29;;;;;;;;;;;21.90;99.90;;;;;;7341026;19;109796;-67
2022/10/26 12:13:22;;;;;;;;;;;21.80;99.90;;;;;;7341731;19;108510;-68
2022/10/26 12:15:53;;;;;;;;;;;21.90;99.90;;;;;;7340980;19;110057;-67
2022/10/26 12:18:56;;;;;;;;;;;21.90;99.90;;;;;;7340308;19;109954;-67
2022/10/26 12:21:25;;;;;;;;;;;21.90;99.90;;;;;;7339338;19;108816;-68
2022/10/26 12:23:54;;;;;;;;;;;22.10;99.90;;;;;;7342702;19;115665;-68
2022/10/26 12:26:23;;;;;;;;;;;22.20;99.90;;;;;;7340168;19;109804;-68
2022/10/26 12:29:02;;;;;;;;;;;22.30;99.90;;;;;;7347451;19;108349;-67
2022/10/26 12:31:35;;;;;;;;;;;22.40;99.90;;;;;;7340729;19;109485;-68
2022/10/26 12:34:10;;;;;;;;;;;22.50;99.90;;;;;;7341684;19;108323;-68
2022/10/26 12:36:46;;;;;;;;;;;22.50;99.90;;;;;;7342089;19;109235;-68
2022/10/26 12:39:28;;;;;;;;;;;22.50;99.90;;;;;;7339476;19;109227;-68
2022/10/26 12:41:56;;;;;;;;;;;22.60;99.90;;;;;;7339222;19;108524;-68
2022/10/26 12:44:30;;;;;;;;;;;22.60;99.90;;;;;;7340123;19;108678;-68
2022/10/26 12:46:57;;;;;;;;;;;22.70;99.90;;;;;;7341665;19;110414;-68
2022/10/26 12:49:43;;;;;;;;;;;22.80;99.90;;;;;;7342984;19;108413;-68
2022/10/26 12:52:20;;;;;;;;;;;22.80;99.90;;;;;;7343967;19;108330;-68
2022/10/26 12:55:06;;;;;;;;;;;22.90;99.90;;;;;;7339700;19;109129;-68
2022/10/26 12:57:38;;;;;;;;;;;23.00;99.90;;;;;;7340325;19;108163;-67
2022/10/26 13:00:11;;;;;;;;;;;23.10;99.90;;;;;;7338906;19;110160;-68
2022/10/26 13:02:47;;;;;;;;;;;23.20;99.90;;;;;;7340799;19;109617;-68
2022/10/26 13:05:39;;;;;;;;;;;23.20;99.90;;;;;;7340043;19;108764;-68
2022/10/26 13:08:07;;;;;;;;;;;23.30;99.90;;;;;;7340151;19;109215;-68
2022/10/26 13:10:35;;;;;;;;;;;23.40;99.90;;;;;;7340141;19;109089;-68
2022/10/26 13:13:04;;;;;;;;;;;23.40;99.90;;;;;;7340898;19;109277;-68
2022/10/26 13:15:37;;;;;;;;;;;23.40;99.90;;;;;;7342883;19;111277;-68
2022/10/26 13:18:18;;;;;;;;;;;23.40;99.90;;;;;;7339744;19;111842;-68
2022/10/26 13:21:03;;;;;;;;;;;23.40;99.90;;;;;;7339940;19;110634;-68
2022/10/26 13:23:31;;;;;;;;;;;23.40;99.90;;;;;;7337744;19;109246;-68
2022/10/26 13:26:02;;;;;;;;;;;23.40;99.90;;;;;;7338979;19;109585;-68
2022/10/26 13:28:38;;;;;;;;;;;23.40;99.90;;;;;;7340716;19;109153;-68
2022/10/26 13:31:23;;;;;;;;;;;23.50;99.90;;;;;;7340844;19;109045;-68
2022/10/26 13:33:51;;;;;;;;;;;23.50;99.90;;;;;;7339877;19;109098;-68
2022/10/26 13:36:28;;;;;;;;;;;23.60;99.90;;;;;;7338819;19;110792;-68
2022/10/26 13:38:56;;;;;;;;;;;23.60;99.90;;;;;;7345276;19;108503;-68
2022/10/26 13:41:31;;;;;;;;;;;23.70;99.90;;;;;;7338140;19;109332;-68
2022/10/26 13:44:02;;;;;;;;;;;23.70;99.90;;;;;;7338927;19;108731;-68
2022/10/26 13:46:32;;;;;;;;;;;23.70;99.90;;;;;;7342008;19;108335;-68
2022/10/26 13:49:04;;;;;;;;;;;23.60;99.90;;;;;;7339126;19;110349;-68
2022/10/26 13:51:39;;;;;;;;;;;23.60;99.90;;;;;;7338764;19;109034;-68
2022/10/26 13:54:19;;;;;;;;;;;23.60;99.90;;;;;;7338319;19;108982;-67
2022/10/26 13:57:11;;;;;;;;;;;23.60;99.90;;;;;;7338671;19;110772;-68
2022/10/26 13:59:40;;;;;;;;;;;23.50;99.90;;;;;;7338979;19;108422;-68
2022/10/26 14:02:23;;;;;;;;;;;23.50;99.90;;;;;;7342959;19;114745;-68
2022/10/26 14:04:51;;;;;;;;;;;23.50;99.90;;;;;;7337252;19;109484;-68
2022/10/26 14:07:21;;;;;;;;;;;23.50;99.90;;;;;;7338383;19;111423;-68
2022/10/26 14:09:55;;;;;;;;;;;23.40;99.90;;;;;;7337304;19;109301;-68
2022/10/26 14:12:27;;;;;;;;;;;23.30;99.90;;;;;;7338260;19;109065;-67
2022/10/26 14:15:04;;;;;;;;;;;23.20;99.90;;;;;;7337941;19;109185;-68
2022/10/26 14:17:31;;;;;;;;;;;23.20;99.90;;;;;;7336441;19;110289;-68
2022/10/26 14:19:58;;;;;;;;;;;23.20;99.90;;;;;;7338111;19;109299;-68
2022/10/26 14:22:26;;;;;;;;;;;23.20;99.90;;;;;;7341751;19;109357;-68
2022/10/26 14:24:54;;;;;;;;;;;23.20;99.90;;;;;;7337528;19;108897;-68